createdAt,value
2022-09-11T00:00:53.019Z,3.07
2022-09-11T00:03:22.258Z,2.97
2022-09-11T00:05:49.995Z,4.83
2022-09-11T00:08:19.724Z,2.70
2022-09-11T00:10:49.292Z,3.17
2022-09-11T00:13:21.316Z,4.43
2022-09-11T00:15:51.274Z,5.10
2022-09-11T00:18:22.354Z,3.87
2022-09-11T00:20:51.507Z,5.57
2022-09-11T00:23:19.571Z,3.10
2022-09-11T00:25:49.552Z,3.67
2022-09-11T00:28:20.205Z,4.80
2022-09-11T00:30:48.676Z,3.57
2022-09-11T00:33:16.928Z,4.67
2022-09-11T00:35:54.519Z,3.10
2022-09-11T00:38:22.115Z,1.80
2022-09-11T00:40:51.805Z,5.77
2022-09-11T00:43:19.873Z,4.27
2022-09-11T00:45:54.472Z,3.37
2022-09-11T00:48:26.334Z,5.00
2022-09-11T00:50:55.721Z,3.80
2022-09-11T00:53:26.286Z,4.33
2022-09-11T00:55:59.383Z,5.67
2022-09-11T00:58:31.262Z,2.57
2022-09-11T01:00:59.256Z,3.70
2022-09-11T01:03:27.967Z,3.47
2022-09-11T01:05:56.069Z,4.13
2022-09-11T01:08:23.733Z,3.83
2022-09-11T01:11:03.308Z,3.93
2022-09-11T01:13:37.611Z,4.57
2022-09-11T01:16:14.022Z,3.80
2022-09-11T01:18:50.684Z,3.00
2022-09-11T01:21:52.538Z,2.73
2022-09-11T01:24:52.414Z,3.73
2022-09-11T01:27:39.789Z,4.53
2022-09-11T01:30:11.966Z,3.60
2022-09-11T01:32:50.818Z,6.97
2022-09-11T01:35:27.219Z,4.73
2022-09-11T01:37:58.217Z,3.07
2022-09-11T01:40:29.543Z,6.90
2022-09-11T01:43:07.055Z,4.23
2022-09-11T01:45:37.197Z,3.87
2022-09-11T01:48:08.939Z,3.57
2022-09-11T01:50:40.937Z,3.97
2022-09-11T01:53:12.837Z,3.03
2022-09-11T01:55:44.147Z,4.17
2022-09-11T01:58:17.446Z,3.07
2022-09-11T02:00:49.784Z,4.50
2022-09-11T02:03:22.537Z,6.50
2022-09-11T02:05:56.302Z,5.40
2022-09-11T02:08:28.821Z,4.10
2022-09-11T02:11:03.499Z,3.57
2022-09-11T02:13:38.306Z,4.23
2022-09-11T02:16:10.167Z,5.17
2022-09-11T02:18:45.991Z,4.33
2022-09-11T02:21:13.790Z,5.23
2022-09-11T02:23:42.351Z,6.63
2022-09-11T02:26:12.038Z,3.00
2022-09-11T02:28:41.333Z,5.43
2022-09-11T02:31:09.024Z,4.97
2022-09-11T02:33:38.572Z,4.03
2022-09-11T02:36:32.798Z,4.93
2022-09-11T02:39:15.394Z,4.90
2022-09-11T02:41:52.829Z,4.90
2022-09-11T02:44:34.958Z,5.63
2022-09-11T02:47:12.194Z,4.87
2022-09-11T02:49:51.505Z,4.30
2022-09-11T02:52:30.698Z,6.63
2022-09-11T02:55:08.015Z,5.50
2022-09-11T02:57:42.511Z,9.80
2022-09-11T03:00:13.413Z,5.70
2022-09-11T03:02:44.147Z,5.50
2022-09-11T03:05:13.445Z,4.07
2022-09-11T03:07:41.009Z,4.27
2022-09-11T03:10:11.509Z,8.50
2022-09-11T03:12:39.777Z,7.27
2022-09-11T03:15:09.557Z,6.77
2022-09-11T03:17:38.618Z,6.03
2022-09-11T03:20:07.272Z,5.47
2022-09-11T03:22:34.871Z,7.20
2022-09-11T03:25:02.885Z,6.87
2022-09-11T03:27:30.458Z,10.73
2022-09-11T03:29:58.595Z,5.37
2022-09-11T03:32:26.202Z,7.83
2022-09-11T03:34:55.145Z,6.27
2022-09-11T03:37:22.732Z,7.53
2022-09-11T03:39:50.355Z,6.43
2022-09-11T03:42:17.959Z,8.47
2022-09-11T03:44:45.641Z,8.23
2022-09-11T03:47:13.904Z,7.93
2022-09-11T03:49:41.512Z,7.07
2022-09-11T03:52:10.437Z,6.70
2022-09-11T03:54:39.324Z,7.30
2022-09-11T03:57:06.981Z,5.63
2022-09-11T03:59:34.608Z,9.47
2022-09-11T04:02:02.249Z,8.63
2022-09-11T04:04:29.868Z,7.73
2022-09-11T04:06:57.455Z,7.97
2022-09-11T04:09:26.778Z,6.23
2022-09-11T04:11:54.425Z,9.13
2022-09-11T04:14:22.772Z,12.03
2022-09-11T04:16:50.497Z,6.00
2022-09-11T04:19:18.765Z,7.33
2022-09-11T04:21:46.398Z,7.13
2022-09-11T04:24:15.297Z,7.70
2022-09-11T04:26:44.194Z,6.47
2022-09-11T04:29:11.793Z,8.57
2022-09-11T04:31:41.165Z,6.27
2022-09-11T04:34:09.521Z,8.00
2022-09-11T04:36:37.198Z,7.63
2022-09-11T04:39:05.115Z,5.87
2022-09-11T04:41:32.695Z,7.40
2022-09-11T04:44:05.172Z,7.00
2022-09-11T04:46:34.386Z,7.73
2022-09-11T04:49:02.168Z,12.57
2022-09-11T04:51:32.160Z,8.20
2022-09-11T04:54:00.801Z,10.73
2022-09-11T04:56:30.072Z,6.67
2022-09-11T04:59:02.318Z,11.23
2022-09-11T05:01:32.109Z,10.73
2022-09-11T05:04:01.739Z,5.77
2022-09-11T05:06:30.350Z,7.93
2022-09-11T05:09:02.408Z,7.77
2022-09-11T05:11:30.478Z,7.00
2022-09-11T05:13:59.852Z,6.87
2022-09-11T05:16:30.397Z,5.27
2022-09-11T05:18:59.058Z,7.67
2022-09-11T05:21:28.282Z,7.87
2022-09-11T05:23:58.597Z,6.93
2022-09-11T05:26:27.961Z,5.40
2022-09-11T05:28:56.355Z,8.47
2022-09-11T05:31:26.351Z,6.93
2022-09-11T05:33:57.008Z,8.43
2022-09-11T05:36:25.117Z,8.13
2022-09-11T05:38:53.720Z,8.63
2022-09-11T05:41:21.730Z,7.10
2022-09-11T05:43:49.691Z,8.83
2022-09-11T05:46:19.005Z,7.03
2022-09-11T05:48:46.998Z,9.87
2022-09-11T05:51:18.475Z,8.80
2022-09-11T05:53:47.054Z,8.93
2022-09-11T05:56:16.798Z,7.90
2022-09-11T05:58:46.125Z,7.27
2022-09-11T06:01:15.156Z,8.23
2022-09-11T06:03:43.559Z,7.37
2022-09-11T06:06:13.719Z,7.80
2022-09-11T06:08:44.068Z,8.90
2022-09-11T06:11:13.767Z,6.20
2022-09-11T06:13:43.121Z,6.17
2022-09-11T06:16:15.963Z,7.80
2022-09-11T06:18:48.979Z,8.77
2022-09-11T06:21:20.045Z,5.93
2022-09-11T06:23:50.130Z,5.70
2022-09-11T06:26:21.266Z,6.63
2022-09-11T06:28:50.746Z,7.00
2022-09-11T06:31:20.146Z,6.07
2022-09-11T06:33:48.353Z,7.90
2022-09-11T06:36:18.336Z,8.57
2022-09-11T06:38:46.556Z,9.43
2022-09-11T06:41:17.113Z,6.30
2022-09-11T06:43:45.286Z,6.03
2022-09-11T06:46:14.877Z,7.57
2022-09-11T06:48:43.403Z,8.87
2022-09-11T06:51:12.888Z,6.73
2022-09-11T06:53:41.452Z,9.20
2022-09-11T06:56:12.289Z,8.63
2022-09-11T06:58:41.687Z,10.80
2022-09-11T07:01:12.214Z,7.67
2022-09-11T07:03:45.348Z,6.87
2022-09-11T07:06:14.268Z,6.27
2022-09-11T07:08:42.083Z,8.73
2022-09-11T07:11:11.529Z,7.63
2022-09-11T07:13:39.663Z,8.07
2022-09-11T07:16:12.663Z,6.57
2022-09-11T07:18:42.119Z,10.70
2022-09-11T07:21:12.216Z,7.37
2022-09-11T07:23:40.968Z,7.37
2022-09-11T07:26:11.579Z,5.80
2022-09-11T07:28:39.807Z,8.20
2022-09-11T07:31:11.727Z,7.30
2022-09-11T07:33:42.696Z,9.70
2022-09-11T07:36:11.813Z,9.90
2022-09-11T07:38:40.991Z,8.70
2022-09-11T07:41:09.775Z,7.40
2022-09-11T07:43:37.824Z,7.77
2022-09-11T07:46:07.182Z,6.23
2022-09-11T07:48:37.099Z,7.13
2022-09-11T07:51:07.217Z,9.63
2022-09-11T07:53:35.784Z,7.07
2022-09-11T07:56:04.759Z,10.43
2022-09-11T07:58:36.413Z,10.27
2022-09-11T08:01:05.298Z,8.30
2022-09-11T08:03:34.314Z,11.70
2022-09-11T08:06:05.505Z,7.97
2022-09-11T08:08:33.240Z,7.63
2022-09-11T08:11:05.130Z,8.40
2022-09-11T08:13:33.303Z,7.87
2022-09-11T08:16:01.332Z,12.70
2022-09-11T08:18:29.251Z,9.77
2022-09-11T08:21:04.428Z,7.80
2022-09-11T08:23:33.256Z,6.50
2022-09-11T08:26:06.407Z,8.50
2022-09-11T08:28:35.253Z,8.37
2022-09-11T08:31:02.964Z,9.97
2022-09-11T08:33:31.032Z,8.33
2022-09-11T08:35:59.536Z,10.87
2022-09-11T08:38:29.300Z,8.23
2022-09-11T08:40:59.942Z,7.57
2022-09-11T08:43:32.577Z,10.23
2022-09-11T08:46:04.971Z,10.87
2022-09-11T08:48:41.235Z,11.53
2022-09-11T08:51:10.937Z,10.00
2022-09-11T08:53:40.044Z,8.73
2022-09-11T08:56:12.798Z,7.47
2022-09-11T08:58:49.466Z,9.17
2022-09-11T09:01:25.703Z,10.57
2022-09-11T09:04:11.085Z,13.07
2022-09-11T09:06:55.209Z,12.80
2022-09-11T09:09:35.257Z,11.70
2022-09-11T09:12:09.629Z,11.90
2022-09-11T09:15:13.738Z,9.97
2022-09-11T09:17:45.562Z,8.47
2022-09-11T09:20:21.255Z,9.85
2022-09-11T09:22:52.296Z,9.23
2022-09-11T09:25:23.534Z,11.63
2022-09-11T09:27:55.989Z,11.13
2022-09-11T09:30:27.338Z,12.63
2022-09-11T09:33:01.354Z,10.02
2022-09-11T09:35:39.518Z,9.77
2022-09-11T09:38:12.866Z,8.88
2022-09-11T09:40:50.091Z,9.23
2022-09-11T09:43:30.308Z,7.50
2022-09-11T09:46:11.379Z,7.82
2022-09-11T09:48:40.888Z,10.77
2022-09-11T09:51:13.306Z,7.15
2022-09-11T09:53:44.406Z,9.32
2022-09-11T09:56:17.289Z,10.00
2022-09-11T09:58:55.568Z,9.50
2022-09-11T10:01:46.820Z,9.27
2022-09-11T10:04:17.908Z,9.57
2022-09-11T10:06:47.388Z,12.23
2022-09-11T10:09:26.844Z,7.32
2022-09-11T10:12:02.932Z,8.70
2022-09-11T10:17:23.489Z,12.57
2022-09-11T10:19:54.744Z,8.27
2022-09-11T10:22:25.542Z,7.60
2022-09-11T10:25:00.497Z,10.02
2022-09-11T10:27:31.475Z,10.73
2022-09-11T10:30:00.526Z,10.95
2022-09-11T10:32:29.151Z,8.93
2022-09-11T10:34:57.717Z,8.90
2022-09-11T10:37:27.543Z,5.57
2022-09-11T10:40:08.986Z,5.47
2022-09-11T10:42:38.620Z,5.30
2022-09-11T10:45:13.814Z,8.10
2022-09-11T10:47:41.982Z,7.40
2022-09-11T10:50:22.412Z,6.63
2022-09-11T10:52:59.911Z,5.13
2022-09-11T10:55:31.744Z,5.30
2022-09-11T10:58:06.992Z,6.57
2022-09-11T11:00:35.814Z,6.03
2022-09-11T11:03:06.804Z,6.50
2022-09-11T11:05:46.236Z,6.63
2022-09-11T11:08:34.704Z,5.60
2022-09-11T11:11:17.996Z,5.47
2022-09-11T11:14:13.242Z,5.88
2022-09-11T11:16:52.434Z,7.32
2022-09-11T11:19:38.783Z,5.50
2022-09-11T11:22:14.816Z,5.32
2022-09-11T11:24:58.094Z,6.57
2022-09-11T11:27:40.598Z,11.82
2022-09-11T11:30:17.737Z,6.43
2022-09-11T11:33:03.954Z,4.97
2022-09-11T11:35:37.228Z,8.02
2022-09-11T11:38:12.041Z,5.82
2022-09-11T11:40:48.125Z,5.38
2022-09-11T11:43:18.418Z,4.53
2022-09-11T11:45:52.110Z,5.45
2022-09-11T11:48:25.296Z,5.75
2022-09-11T11:50:55.432Z,6.30
2022-09-11T11:53:26.681Z,5.22
2022-09-11T11:56:03.852Z,4.35
2022-09-11T11:58:42.938Z,5.63
2022-09-11T12:01:20.126Z,5.03
2022-09-11T12:03:56.504Z,4.82
2022-09-11T12:06:24.300Z,4.68
2022-09-11T12:08:51.927Z,4.13
2022-09-11T12:11:29.750Z,3.80
2022-09-11T12:13:58.880Z,5.78
2022-09-11T12:16:31.745Z,4.20
2022-09-11T12:19:08.486Z,4.13
2022-09-11T12:21:41.397Z,4.05
2022-09-11T12:24:21.131Z,3.88
2022-09-11T12:27:11.756Z,3.97
2022-09-11T12:29:54.206Z,4.45
2022-09-11T12:32:42.898Z,4.82
2022-09-11T12:35:20.386Z,6.53
2022-09-11T12:37:55.734Z,4.85
2022-09-11T12:40:34.113Z,5.72
2022-09-11T12:43:27.384Z,6.65
2022-09-11T12:45:56.822Z,6.10
2022-09-11T12:48:38.894Z,5.57
2022-09-11T12:51:08.354Z,4.80
2022-09-11T12:53:38.704Z,7.15
2022-09-11T12:56:08.423Z,5.05
2022-09-11T12:58:40.612Z,5.00
2022-09-11T13:01:23.732Z,6.63
2022-09-11T13:04:00.919Z,7.00
2022-09-11T13:06:41.841Z,3.85
2022-09-11T13:09:20.179Z,9.65
2022-09-11T13:11:50.139Z,6.10
2022-09-11T13:14:47.885Z,6.55
2022-09-11T13:17:25.679Z,7.22
2022-09-11T13:20:10.505Z,8.50
2022-09-11T13:22:39.318Z,7.47
2022-09-11T13:25:12.357Z,6.18
2022-09-11T13:27:42.551Z,5.60
2022-09-11T13:30:14.493Z,6.28
2022-09-11T13:32:42.991Z,6.95
2022-09-11T13:35:16.947Z,4.55
2022-09-11T13:37:47.194Z,5.85
2022-09-11T13:40:20.761Z,4.50
2022-09-11T13:42:49.829Z,7.95
2022-09-11T13:45:20.160Z,5.30
2022-09-11T13:47:47.864Z,4.68
2022-09-11T13:50:20.806Z,6.25
2022-09-11T13:52:50.255Z,6.13
2022-09-11T13:55:20.240Z,4.80
2022-09-11T13:57:57.434Z,5.43
2022-09-11T14:00:39.406Z,5.50
2022-09-11T14:03:07.808Z,6.55
2022-09-11T14:05:36.751Z,4.35
2022-09-11T14:08:07.573Z,5.70
2022-09-11T14:10:46.958Z,5.38
2022-09-11T14:13:18.583Z,5.60
2022-09-11T14:15:51.876Z,4.03
2022-09-11T14:18:29.574Z,5.53
2022-09-11T14:21:01.264Z,4.43
2022-09-11T14:23:31.238Z,5.60
2022-09-11T14:26:07.756Z,5.88
2022-09-11T14:28:43.028Z,4.82
2022-09-11T14:31:14.321Z,6.22
2022-09-11T14:33:42.333Z,5.00
2022-09-11T14:36:19.000Z,6.93
2022-09-11T14:38:48.121Z,4.35
2022-09-11T14:41:16.680Z,4.65
2022-09-11T14:43:47.753Z,4.75
2022-09-11T14:46:17.047Z,5.85
2022-09-11T14:48:44.805Z,4.75
2022-09-11T14:51:13.951Z,7.15
2022-09-11T14:53:43.917Z,8.20
2022-09-11T14:56:11.693Z,5.70
2022-09-11T14:58:39.295Z,6.47
2022-09-11T15:01:07.179Z,6.78
2022-09-11T15:03:35.026Z,6.13
2022-09-11T15:06:02.711Z,7.10
2022-09-11T15:08:31.628Z,6.40
2022-09-11T15:10:59.259Z,6.43
2022-09-11T15:13:27.219Z,7.20
2022-09-11T15:15:56.059Z,7.22
2022-09-11T15:18:25.545Z,8.90
2022-09-11T15:20:54.818Z,10.02
2022-09-11T15:23:22.381Z,7.68
2022-09-11T15:25:57.361Z,6.82
2022-09-11T15:28:24.913Z,7.97
2022-09-11T15:30:59.862Z,7.88
2022-09-11T15:33:27.918Z,6.97
2022-09-11T15:35:57.083Z,7.17
2022-09-11T15:38:25.035Z,7.60
2022-09-11T15:40:56.796Z,7.22
2022-09-11T15:43:24.663Z,5.75
2022-09-11T15:45:52.583Z,9.05
2022-09-11T15:48:21.295Z,6.07
2022-09-11T15:51:00.064Z,10.03
2022-09-11T15:53:27.986Z,7.00
2022-09-11T15:56:05.104Z,8.13
2022-09-11T15:58:34.109Z,8.18
2022-09-11T16:01:02.797Z,9.05
2022-09-11T16:03:31.209Z,6.43
2022-09-11T16:06:00.858Z,17.60
2022-09-11T16:08:28.880Z,53.30
2022-09-11T16:10:56.485Z,18.53
2022-09-11T16:13:25.460Z,10.10
2022-09-11T16:16:03.583Z,8.43
2022-09-11T16:18:31.612Z,7.87
2022-09-11T16:20:59.684Z,8.00
2022-09-11T16:23:28.065Z,7.63
2022-09-11T16:25:55.781Z,7.82
2022-09-11T16:28:25.182Z,11.13
2022-09-11T16:30:53.846Z,6.50
2022-09-11T16:33:22.897Z,7.17
2022-09-11T16:36:00.040Z,9.20
2022-09-11T16:38:29.018Z,8.00
2022-09-11T16:41:09.316Z,6.63
2022-09-11T16:43:38.555Z,7.25
2022-09-11T16:46:08.559Z,6.63
2022-09-11T16:48:36.980Z,7.37
2022-09-11T16:51:05.677Z,7.33
2022-09-11T16:53:35.218Z,11.20
2022-09-11T16:56:05.393Z,11.63
2022-09-11T16:58:34.114Z,13.03
2022-09-11T17:01:06.342Z,7.93
2022-09-11T17:03:36.216Z,7.93
2022-09-11T17:06:08.033Z,9.17
2022-09-11T17:08:39.148Z,7.30
2022-09-11T17:11:09.689Z,13.90
2022-09-11T17:13:37.629Z,14.43
2022-09-11T17:16:11.564Z,8.70
2022-09-11T17:18:47.259Z,10.43
2022-09-11T17:21:15.351Z,6.57
2022-09-11T17:23:43.107Z,7.60
2022-09-11T17:26:12.774Z,7.37
2022-09-11T17:28:41.791Z,6.73
2022-09-11T17:31:13.465Z,6.27
2022-09-11T17:33:41.575Z,7.73
2022-09-11T17:36:10.943Z,6.27
2022-09-11T17:38:40.207Z,7.53
2022-09-11T17:41:09.241Z,9.90
2022-09-11T17:43:37.666Z,6.67
2022-09-11T17:46:07.924Z,6.90
2022-09-11T17:48:37.541Z,7.53
2022-09-11T17:51:07.496Z,7.80
2022-09-11T17:53:38.524Z,9.23
2022-09-11T17:56:09.680Z,9.87
2022-09-11T17:58:37.468Z,8.17
2022-09-11T18:01:06.096Z,8.77
2022-09-11T18:03:35.223Z,7.87
2022-09-11T18:06:06.674Z,9.47
2022-09-11T18:08:34.402Z,6.80
2022-09-11T18:11:03.055Z,10.33
2022-09-11T18:13:32.330Z,8.97
2022-09-11T18:15:59.893Z,9.43
2022-09-11T18:18:27.882Z,8.83
2022-09-11T18:20:55.855Z,10.93
2022-09-11T18:23:25.275Z,9.00
2022-09-11T18:25:52.922Z,14.20
2022-09-11T18:28:20.750Z,9.87
2022-09-11T18:30:49.824Z,11.43
2022-09-11T18:33:17.584Z,10.67
2022-09-11T18:35:46.561Z,8.87
2022-09-11T18:38:14.134Z,9.30
2022-09-11T18:40:43.155Z,9.03
2022-09-11T18:43:10.749Z,11.13
2022-09-11T18:45:38.312Z,9.97
2022-09-11T18:48:06.202Z,13.03
2022-09-11T18:50:36.499Z,10.30
2022-09-11T18:53:04.131Z,9.30
2022-09-11T18:55:31.722Z,9.73
2022-09-11T18:58:00.640Z,9.10
2022-09-11T19:00:29.624Z,11.13
2022-09-11T19:02:57.319Z,10.17
2022-09-11T19:05:26.216Z,10.93
2022-09-11T19:07:55.121Z,8.37
2022-09-11T19:10:22.773Z,9.60
2022-09-11T19:12:50.342Z,12.60
2022-09-11T19:15:19.483Z,9.30
2022-09-11T19:17:47.987Z,13.03
2022-09-11T19:20:17.313Z,9.87
2022-09-11T19:22:44.891Z,12.80
2022-09-11T19:25:12.551Z,11.23
2022-09-11T19:27:40.155Z,12.67
2022-09-11T19:30:08.637Z,11.63
2022-09-11T19:32:37.615Z,9.60
2022-09-11T19:35:06.113Z,9.50
2022-09-11T19:37:33.962Z,10.90
2022-09-11T19:40:01.619Z,12.67
2022-09-11T19:42:29.229Z,10.17
2022-09-11T19:44:56.797Z,11.97
2022-09-11T19:47:25.016Z,11.83
2022-09-11T19:49:54.031Z,12.37
2022-09-11T19:52:21.613Z,10.03
2022-09-11T19:54:49.277Z,9.93
2022-09-11T19:57:19.598Z,10.47
2022-09-11T19:59:47.176Z,13.40
2022-09-11T20:02:14.926Z,10.87
2022-09-11T20:04:42.524Z,11.50
2022-09-11T20:07:11.666Z,10.97
2022-09-11T20:09:40.256Z,11.10
2022-09-11T20:12:08.081Z,10.90
2022-09-11T20:14:38.384Z,11.53
2022-09-11T20:17:10.169Z,11.13
2022-09-11T20:19:37.791Z,16.13
2022-09-11T20:22:05.474Z,10.97
2022-09-11T20:24:34.445Z,13.37
2022-09-11T20:27:02.010Z,15.23
2022-09-11T20:29:29.602Z,13.20
2022-09-11T20:31:57.209Z,13.20
2022-09-11T20:34:27.892Z,12.57
2022-09-11T20:36:56.580Z,16.40
2022-09-11T20:39:24.300Z,11.73
2022-09-11T20:41:53.263Z,12.07
2022-09-11T20:44:20.814Z,14.27
2022-09-11T20:46:48.443Z,13.40
2022-09-11T20:49:16.146Z,17.23
2022-09-11T20:51:44.369Z,14.63
2022-09-11T20:54:12.082Z,19.77
2022-09-11T20:56:39.729Z,15.07
2022-09-11T20:59:09.021Z,12.17
2022-09-11T21:01:36.801Z,12.53
2022-09-11T21:04:05.213Z,13.17
2022-09-11T21:06:35.032Z,11.83
2022-09-11T21:09:05.769Z,14.53
2022-09-11T21:11:34.158Z,11.33
2022-09-11T21:14:02.053Z,14.60
2022-09-11T21:16:31.272Z,10.93
2022-09-11T21:19:01.936Z,12.47
2022-09-11T21:21:30.576Z,15.47
2022-09-11T21:23:59.339Z,13.57
2022-09-11T21:26:28.866Z,13.40
2022-09-11T21:28:57.997Z,14.87
2022-09-11T21:31:26.802Z,13.73
2022-09-11T21:33:55.858Z,19.93
2022-09-11T21:36:23.842Z,13.17
2022-09-11T21:38:51.510Z,11.50
2022-09-11T21:41:19.424Z,12.57
2022-09-11T21:43:47.505Z,14.90
2022-09-11T21:46:15.564Z,12.53
2022-09-11T21:48:43.285Z,13.37
2022-09-11T21:51:14.571Z,13.93
2022-09-11T21:53:44.122Z,14.67
2022-09-11T21:56:18.192Z,13.60
2022-09-11T21:58:46.011Z,15.63
2022-09-11T22:01:14.298Z,12.40
2022-09-11T22:03:42.010Z,12.80
2022-09-11T22:06:12.608Z,14.27
2022-09-11T22:08:42.728Z,12.90
2022-09-11T22:11:11.278Z,14.10
2022-09-11T22:13:39.547Z,12.60
2022-09-11T22:16:09.383Z,13.80
2022-09-11T22:18:37.623Z,12.33
2022-09-11T22:21:05.840Z,14.17
2022-09-11T22:23:35.139Z,12.40
2022-09-11T22:26:04.987Z,12.20
2022-09-11T22:28:32.639Z,16.77
2022-09-11T22:31:00.547Z,16.30
2022-09-11T22:33:28.152Z,15.73
2022-09-11T22:35:55.773Z,13.73
2022-09-11T22:38:23.814Z,14.87
2022-09-11T22:40:55.558Z,13.07
2022-09-11T22:43:23.230Z,14.00
2022-09-11T22:45:52.091Z,15.60
2022-09-11T22:48:20.063Z,13.40
2022-09-11T22:50:47.713Z,14.17
2022-09-11T22:53:15.547Z,12.50
2022-09-11T22:55:45.101Z,14.20
2022-09-11T22:58:14.640Z,14.57
2022-09-11T23:00:43.229Z,14.13
2022-09-11T23:03:11.214Z,14.20
2022-09-11T23:05:56.583Z,14.77
2022-09-11T23:08:28.341Z,12.20
2022-09-11T23:11:00.016Z,13.80
2022-09-11T23:13:29.998Z,10.97
2022-09-11T23:15:57.899Z,13.50
2022-09-11T23:18:26.352Z,11.23
2022-09-11T23:20:54.739Z,11.97
2022-09-11T23:23:22.728Z,11.60
2022-09-11T23:25:50.613Z,12.73
2022-09-11T23:28:18.905Z,10.60
2022-09-11T23:30:47.872Z,10.93
2022-09-11T23:33:15.480Z,10.43
2022-09-11T23:35:43.064Z,13.13
2022-09-11T23:38:10.694Z,14.90
2022-09-11T23:40:38.310Z,13.07
2022-09-11T23:43:05.868Z,11.37
2022-09-11T23:45:33.811Z,12.43
2022-09-11T23:48:03.577Z,11.73
2022-09-11T23:50:31.152Z,10.97
2022-09-11T23:52:58.856Z,10.17
2022-09-11T23:55:26.510Z,10.07
2022-09-11T23:57:55.233Z,13.37
